sensor_id;sensor_type;location;lat;lon;timestamp;pressure;altitude;pressure_sealevel;temperature;humidity
51928;BME280;37953;52.806;18.270;2023-11-19T00:01:13;101234.19;;;2.16;100.00
51928;BME280;37953;52.806;18.270;2023-11-19T00:04:00;101233.28;;;2.16;100.00
51928;BME280;37953;52.806;18.270;2023-11-19T00:06:25;101235.81;;;2.14;100.00
51928;BME280;37953;52.806;18.270;2023-11-19T00:08:52;101236.69;;;2.15;100.00
51928;BME280;37953;52.806;18.270;2023-11-19T00:11:18;101232.34;;;2.14;100.00
51928;BME280;37953;52.806;18.270;2023-11-19T00:13:44;101217.88;;;2.14;100.00
51928;BME280;37953;52.806;18.270;2023-11-19T00:16:10;101217.88;;;2.14;100.00
51928;BME280;37953;52.806;18.270;2023-11-19T00:18:36;101209.22;;;2.12;100.00
51928;BME280;37953;52.806;18.270;2023-11-19T00:21:02;101211.78;;;2.12;100.00
51928;BME280;37953;52.806;18.270;2023-11-19T00:23:28;101199.75;;;2.11;100.00
51928;BME280;37953;52.806;18.270;2023-11-19T00:25:54;101204.97;;;2.13;100.00
51928;BME280;37953;52.806;18.270;2023-11-19T00:28:20;101206.56;;;2.11;100.00
51928;BME280;37953;52.806;18.270;2023-11-19T00:30:46;101207.44;;;2.11;100.00
51928;BME280;37953;52.806;18.270;2023-11-19T00:33:12;101206.56;;;2.11;100.00
51928;BME280;37953;52.806;18.270;2023-11-19T00:35:38;101215.09;;;2.10;100.00
51928;BME280;37953;52.806;18.270;2023-11-19T00:38:04;101210.75;;;2.09;100.00
51928;BME280;37953;52.806;18.270;2023-11-19T00:40:32;101198.66;;;2.06;100.00
51928;BME280;37953;52.806;18.270;2023-11-19T00:42:58;101199.41;;;2.03;100.00
51928;BME280;37953;52.806;18.270;2023-11-19T00:45:24;101192.41;;;2.01;100.00
51928;BME280;37953;52.806;18.270;2023-11-19T00:47:54;101183.78;;;1.99;100.00
51928;BME280;37953;52.806;18.270;2023-11-19T00:50:19;101188.84;;;1.97;100.00
51928;BME280;37953;52.806;18.270;2023-11-19T00:52:46;101181.09;;;1.96;100.00
51928;BME280;37953;52.806;18.270;2023-11-19T00:55:12;101172.44;;;1.94;100.00
51928;BME280;37953;52.806;18.270;2023-11-19T00:57:39;101176.69;;;1.93;100.00
51928;BME280;37953;52.806;18.270;2023-11-19T01:00:05;101169.75;;;1.91;100.00
51928;BME280;37953;52.806;18.270;2023-11-19T01:02:45;101162.84;;;1.90;100.00
51928;BME280;37953;52.806;18.270;2023-11-19T01:05:11;101155.97;;;1.89;100.00
51928;BME280;37953;52.806;18.270;2023-11-19T01:07:39;101149.94;;;1.88;100.00
51928;BME280;37953;52.806;18.270;2023-11-19T01:10:06;101139.69;;;1.88;100.00
51928;BME280;37953;52.806;18.270;2023-11-19T01:12:33;101145.66;;;1.87;100.00
51928;BME280;37953;52.806;18.270;2023-11-19T01:14:58;101133.63;;;1.86;100.00
51928;BME280;37953;52.806;18.270;2023-11-19T01:17:31;101130.19;;;1.86;100.00
51928;BME280;37953;52.806;18.270;2023-11-19T01:20:00;101121.63;;;1.85;100.00
51928;BME280;37953;52.806;18.270;2023-11-19T01:22:26;101121.56;;;1.83;100.00
51928;BME280;37953;52.806;18.270;2023-11-19T01:24:52;101112.19;;;1.84;100.00
51928;BME280;37953;52.806;18.270;2023-11-19T01:27:20;101113.06;;;1.85;100.00
51928;BME280;37953;52.806;18.270;2023-11-19T01:29:45;101110.44;;;1.83;100.00
51928;BME280;37953;52.806;18.270;2023-11-19T01:32:12;101100.19;;;1.83;100.00
51928;BME280;37953;52.806;18.270;2023-11-19T01:34:38;101114.72;;;1.84;100.00
51928;BME280;37953;52.806;18.270;2023-11-19T01:37:04;101115.47;;;1.81;100.00
51928;BME280;37953;52.806;18.270;2023-11-19T01:39:30;101101.78;;;1.81;100.00
51928;BME280;37953;52.806;18.270;2023-11-19T01:41:56;101094.03;;;1.79;100.00
51928;BME280;37953;52.806;18.270;2023-11-19T01:44:22;101093.25;;;1.80;100.00
51928;BME280;37953;52.806;18.270;2023-11-19T01:46:48;101092.38;;;1.80;100.00
51928;BME280;37953;52.806;18.270;2023-11-19T01:49:15;101084.69;;;1.80;100.00
51928;BME280;37953;52.806;18.270;2023-11-19T01:51:43;101071.88;;;1.80;100.00
51928;BME280;37953;52.806;18.270;2023-11-19T01:54:13;101067.53;;;1.79;100.00
51928;BME280;37953;52.806;18.270;2023-11-19T01:56:41;101058.13;;;1.78;100.00
51928;BME280;37953;52.806;18.270;2023-11-19T01:59:09;101054.59;;;1.76;100.00
51928;BME280;37953;52.806;18.270;2023-11-19T02:01:39;101037.38;;;1.73;100.00
51928;BME280;37953;52.806;18.270;2023-11-19T02:04:09;101037.38;;;1.73;100.00
51928;BME280;37953;52.806;18.270;2023-11-19T02:06:40;101027.00;;;1.70;100.00
51928;BME280;37953;52.806;18.270;2023-11-19T02:09:08;101026.84;;;1.67;100.00
51928;BME280;37953;52.806;18.270;2023-11-19T02:11:34;101030.97;;;1.63;100.00
51928;BME280;37953;52.806;18.270;2023-11-19T02:14:01;101018.72;;;1.58;100.00
51928;BME280;37953;52.806;18.270;2023-11-19T02:16:29;101025.38;;;1.54;100.00
51928;BME280;37953;52.806;18.270;2023-11-19T02:18:55;101027.81;;;1.51;100.00
51928;BME280;37953;52.806;18.270;2023-11-19T02:21:28;101020.03;;;1.50;100.00
51928;BME280;37953;52.806;18.270;2023-11-19T02:23:53;101017.47;;;1.50;100.00
51928;BME280;37953;52.806;18.270;2023-11-19T02:26:29;101010.75;;;1.52;100.00
51928;BME280;37953;52.806;18.270;2023-11-19T02:28:59;101001.31;;;1.51;100.00
51928;BME280;37953;52.806;18.270;2023-11-19T02:31:25;100992.91;;;1.53;100.00
51928;BME280;37953;52.806;18.270;2023-11-19T02:33:53;100991.28;;;1.55;100.00
51928;BME280;37953;52.806;18.270;2023-11-19T02:36:19;100995.59;;;1.56;100.00
51928;BME280;37953;52.806;18.270;2023-11-19T02:38:44;100987.22;;;1.59;100.00
51928;BME280;37953;52.806;18.270;2023-11-19T02:41:13;100978.72;;;1.60;100.00
51928;BME280;37953;52.806;18.270;2023-11-19T02:43:39;100971.19;;;1.63;100.00
51928;BME280;37953;52.806;18.270;2023-11-19T02:46:06;100965.25;;;1.64;100.00
51928;BME280;37953;52.806;18.270;2023-11-19T02:48:38;100969.72;;;1.68;100.00
51928;BME280;37953;52.806;18.270;2023-11-19T02:51:05;100962.97;;;1.70;100.00
51928;BME280;37953;52.806;18.270;2023-11-19T02:53:45;100956.31;;;1.74;100.00
51928;BME280;37953;52.806;18.270;2023-11-19T02:56:14;100947.88;;;1.76;100.00
51928;BME280;37953;52.806;18.270;2023-11-19T02:58:51;100945.41;;;1.78;100.00
51928;BME280;37953;52.806;18.270;2023-11-19T03:01:24;100938.72;;;1.81;100.00
51928;BME280;37953;52.806;18.270;2023-11-19T03:04:04;100937.03;;;1.82;100.00
51928;BME280;37953;52.806;18.270;2023-11-19T03:06:30;100931.97;;;1.83;100.00
51928;BME280;37953;52.806;18.270;2023-11-19T03:08:56;100926.84;;;1.83;100.00
51928;BME280;37953;52.806;18.270;2023-11-19T03:11:22;100929.50;;;1.85;100.00
51928;BME280;37953;52.806;18.270;2023-11-19T03:13:48;100921.00;;;1.86;100.00
51928;BME280;37953;52.806;18.270;2023-11-19T03:16:17;100913.31;;;1.86;100.00
51928;BME280;37953;52.806;18.270;2023-11-19T03:18:42;100907.47;;;1.89;100.00
51928;BME280;37953;52.806;18.270;2023-11-19T03:21:08;100899.81;;;1.90;100.00
51928;BME280;37953;52.806;18.270;2023-11-19T03:23:35;100899.09;;;1.93;100.00
51928;BME280;37953;52.806;18.270;2023-11-19T03:26:02;100894.84;;;1.93;100.00
51928;BME280;37953;52.806;18.270;2023-11-19T03:28:31;100887.25;;;1.95;100.00
51928;BME280;37953;52.806;18.270;2023-11-19T03:30:57;100881.38;;;1.97;100.00
51928;BME280;37953;52.806;18.270;2023-11-19T03:33:24;100872.94;;;2.00;100.00
51928;BME280;37953;52.806;18.270;2023-11-19T03:35:51;100852.50;;;2.01;100.00
51928;BME280;37953;52.806;18.270;2023-11-19T03:38:17;100838.88;;;2.02;100.00
51928;BME280;37953;52.806;18.270;2023-11-19T03:40:44;100839.81;;;2.04;100.00
51928;BME280;37953;52.806;18.270;2023-11-19T03:43:12;100833.91;;;2.06;100.00
51928;BME280;37953;52.806;18.270;2023-11-19T03:45:38;100829.66;;;2.06;100.00
51928;BME280;37953;52.806;18.270;2023-11-19T03:48:04;100828.81;;;2.07;100.00
51928;BME280;37953;52.806;18.270;2023-11-19T03:50:30;100828.88;;;2.09;100.00
51928;BME280;37953;52.806;18.270;2023-11-19T03:52:56;100825.53;;;2.10;100.00
51928;BME280;37953;52.806;18.270;2023-11-19T03:55:22;100808.38;;;2.09;100.00
51928;BME280;37953;52.806;18.270;2023-11-19T03:57:48;100816.94;;;2.09;100.00
51928;BME280;37953;52.806;18.270;2023-11-19T04:00:14;100808.38;;;2.09;100.00
51928;BME280;37953;52.806;18.270;2023-11-19T04:02:40;100816.16;;;2.10;100.00
51928;BME280;37953;52.806;18.270;2023-11-19T04:05:07;100805.91;;;2.10;100.00
51928;BME280;37953;52.806;18.270;2023-11-19T04:07:34;100802.47;;;2.10;100.00
51928;BME280;37953;52.806;18.270;2023-11-19T04:10:00;100806.78;;;2.11;100.00
51928;BME280;37953;52.806;18.270;2023-11-19T04:12:26;100805.97;;;2.12;100.00
51928;BME280;37953;52.806;18.270;2023-11-19T04:14:52;100803.44;;;2.13;100.00
51928;BME280;37953;52.806;18.270;2023-11-19T04:17:18;100804.41;;;2.15;100.00
51928;BME280;37953;52.806;18.270;2023-11-19T04:19:44;100804.41;;;2.15;100.00
51928;BME280;37953;52.806;18.270;2023-11-19T04:22:10;100792.44;;;2.16;100.00
51928;BME280;37953;52.806;18.270;2023-11-19T04:24:36;100781.41;;;2.17;100.00
51928;BME280;37953;52.806;18.270;2023-11-19T04:27:03;100772.00;;;2.17;100.00
51928;BME280;37953;52.806;18.270;2023-11-19T04:29:32;100770.41;;;2.19;100.00
51928;BME280;37953;52.806;18.270;2023-11-19T04:31:58;100765.34;;;2.21;100.00
51928;BME280;37953;52.806;18.270;2023-11-19T04:34:26;100755.94;;;2.21;100.00
51928;BME280;37953;52.806;18.270;2023-11-19T04:36:52;100759.47;;;2.23;100.00
51928;BME280;37953;52.806;18.270;2023-11-19T04:39:29;100744.94;;;2.24;100.00
51928;BME280;37953;52.806;18.270;2023-11-19T04:41:55;100739.03;;;2.25;100.00
51928;BME280;37953;52.806;18.270;2023-11-19T04:44:21;100735.63;;;2.26;100.00
51928;BME280;37953;52.806;18.270;2023-11-19T04:46:47;100727.16;;;2.27;100.00
51928;BME280;37953;52.806;18.270;2023-11-19T04:49:13;100740.06;;;2.30;100.00
51928;BME280;37953;52.806;18.270;2023-11-19T04:51:41;100731.59;;;2.31;100.00
51928;BME280;37953;52.806;18.270;2023-11-19T04:54:08;100735.94;;;2.34;100.00
51928;BME280;37953;52.806;18.270;2023-11-19T04:56:35;100736.03;;;2.35;100.00
51928;BME280;37953;52.806;18.270;2023-11-19T04:59:04;100730.13;;;2.38;100.00
51928;BME280;37953;52.806;18.270;2023-11-19T05:01:33;100725.94;;;2.40;100.00
51928;BME280;37953;52.806;18.270;2023-11-19T05:03:59;100714.00;;;2.40;100.00
51928;BME280;37953;52.806;18.270;2023-11-19T05:06:27;100714.00;;;2.40;100.00
51928;BME280;37953;52.806;18.270;2023-11-19T05:08:54;100720.06;;;2.42;100.00
51928;BME280;37953;52.806;18.270;2023-11-19T05:11:20;100724.31;;;2.42;100.00
51928;BME280;37953;52.806;18.270;2023-11-19T05:13:46;100708.06;;;2.41;100.00
51928;BME280;37953;52.806;18.270;2023-11-19T05:16:12;100703.03;;;2.44;100.00
51928;BME280;37953;52.806;18.270;2023-11-19T05:18:46;100686.88;;;2.46;100.00
51928;BME280;37953;52.806;18.270;2023-11-19T05:21:12;100679.97;;;2.44;100.00
51928;BME280;37953;52.806;18.270;2023-11-19T05:23:38;100674.91;;;2.46;100.00
51928;BME280;37953;52.806;18.270;2023-11-19T05:26:05;100671.50;;;2.47;100.00
51928;BME280;37953;52.806;18.270;2023-11-19T05:28:31;100667.25;;;2.48;100.00
51928;BME280;37953;52.806;18.270;2023-11-19T05:30:57;100667.25;;;2.48;100.00
51928;BME280;37953;52.806;18.270;2023-11-19T05:33:23;100663.81;;;2.47;100.00
51928;BME280;37953;52.806;18.270;2023-11-19T05:35:49;100665.53;;;2.47;100.00
51928;BME280;37953;52.806;18.270;2023-11-19T05:38:15;100657.81;;;2.47;100.00
51928;BME280;37953;52.806;18.270;2023-11-19T05:40:41;100648.44;;;2.47;100.00
51928;BME280;37953;52.806;18.270;2023-11-19T05:43:07;100639.03;;;2.48;100.00
51928;BME280;37953;52.806;18.270;2023-11-19T05:45:33;100639.03;;;2.48;100.00
51928;BME280;37953;52.806;18.270;2023-11-19T05:47:59;100640.75;;;2.47;100.00
51928;BME280;37953;52.806;18.270;2023-11-19T05:50:25;100639.03;;;2.48;100.00
51928;BME280;37953;52.806;18.270;2023-11-19T05:52:51;100651.88;;;2.48;100.00
51928;BME280;37953;52.806;18.270;2023-11-19T05:55:18;100645.88;;;2.47;100.00
51928;BME280;37953;52.806;18.270;2023-11-19T05:57:45;100650.91;;;2.44;100.00
51928;BME280;37953;52.806;18.270;2023-11-19T06:00:11;100648.41;;;2.46;100.00
51928;BME280;37953;52.806;18.270;2023-11-19T06:02:43;100643.28;;;2.46;100.00
51928;BME280;37953;52.806;18.270;2023-11-19T06:05:09;100633.00;;;2.46;100.00
51928;BME280;37953;52.806;18.270;2023-11-19T06:07:35;100631.31;;;2.46;100.00
51928;BME280;37953;52.806;18.270;2023-11-19T06:10:02;100627.00;;;2.45;100.00
51928;BME280;37953;52.806;18.270;2023-11-19T06:12:33;100627.13;;;2.48;100.00
51928;BME280;37953;52.806;18.270;2023-11-19T06:15:09;100613.47;;;2.49;100.00
51928;BME280;37953;52.806;18.270;2023-11-19T06:17:35;100614.31;;;2.48;100.00
51928;BME280;37953;52.806;18.270;2023-11-19T06:20:01;100609.97;;;2.47;100.00
51928;BME280;37953;52.806;18.270;2023-11-19T06:22:27;100604.03;;;2.48;100.00
51928;BME280;37953;52.806;18.270;2023-11-19T06:24:53;100591.22;;;2.48;100.00
51928;BME280;37953;52.806;18.270;2023-11-19T06:27:19;100576.72;;;2.49;100.00
51928;BME280;37953;52.806;18.270;2023-11-19T06:29:45;100563.94;;;2.50;100.00
51928;BME280;37953;52.806;18.270;2023-11-19T06:32:11;100549.44;;;2.51;100.00
51928;BME280;37953;52.806;18.270;2023-11-19T06:34:46;100552.09;;;2.54;100.00
51928;BME280;37953;52.806;18.270;2023-11-19T06:37:13;100554.66;;;2.54;100.00
51928;BME280;37953;52.806;18.270;2023-11-19T06:39:39;100548.66;;;2.53;100.00
51928;BME280;37953;52.806;18.270;2023-11-19T06:42:12;100550.38;;;2.53;100.00
51928;BME280;37953;52.806;18.270;2023-11-19T06:44:43;100536.69;;;2.52;100.00
51928;BME280;37953;52.806;18.270;2023-11-19T06:47:09;100535.84;;;2.53;100.00
51928;BME280;37953;52.806;18.270;2023-11-19T06:49:35;100533.28;;;2.53;100.00
51928;BME280;37953;52.806;18.270;2023-11-19T06:52:04;100531.53;;;2.52;100.00
51928;BME280;37953;52.806;18.270;2023-11-19T06:54:30;100529.84;;;2.53;100.00
51928;BME280;37953;52.806;18.270;2023-11-19T06:57:00;100529.91;;;2.54;100.00
51928;BME280;37953;52.806;18.270;2023-11-19T06:59:33;100509.34;;;2.53;100.00
51928;BME280;37953;52.806;18.270;2023-11-19T07:02:03;100511.97;;;2.54;100.00
51928;BME280;37953;52.806;18.270;2023-11-19T07:04:30;100505.13;;;2.55;100.00
51928;BME280;37953;52.806;18.270;2023-11-19T07:06:57;100501.72;;;2.56;100.00
51928;BME280;37953;52.806;18.270;2023-11-19T07:09:23;100491.44;;;2.54;100.00
51928;BME280;37953;52.806;18.270;2023-11-19T07:11:49;100489.75;;;2.55;100.00
51928;BME280;37953;52.806;18.270;2023-11-19T07:14:18;100482.06;;;2.55;100.00
51928;BME280;37953;52.806;18.270;2023-11-19T07:16:47;100481.22;;;2.56;100.00
51928;BME280;37953;52.806;18.270;2023-11-19T07:19:15;100477.00;;;2.56;100.00
51928;BME280;37953;52.806;18.270;2023-11-19T07:21:42;100469.31;;;2.58;100.00
51928;BME280;37953;52.806;18.270;2023-11-19T07:24:10;100469.31;;;2.58;100.00
51928;BME280;37953;52.806;18.270;2023-11-19T07:26:48;100459.19;;;2.61;100.00
51928;BME280;37953;52.806;18.270;2023-11-19T07:29:20;100454.94;;;2.61;100.00
51928;BME280;37953;52.806;18.270;2023-11-19T07:31:50;100457.59;;;2.64;100.00
51928;BME280;37953;52.806;18.270;2023-11-19T07:34:19;100452.44;;;2.64;100.00
51928;BME280;37953;52.806;18.270;2023-11-19T07:36:49;100462.84;;;2.68;100.00
51928;BME280;37953;52.806;18.270;2023-11-19T07:39:15;100456.84;;;2.67;100.00
51928;BME280;37953;52.806;18.270;2023-11-19T07:41:41;100458.50;;;2.67;100.00
51928;BME280;37953;52.806;18.270;2023-11-19T07:44:07;100447.44;;;2.68;100.00
51928;BME280;37953;52.806;18.270;2023-11-19T07:46:34;100443.19;;;2.68;100.00
51928;BME280;37953;52.806;18.270;2023-11-19T07:49:07;100438.97;;;2.70;100.00
51928;BME280;37953;52.806;18.270;2023-11-19T07:51:38;100433.84;;;2.70;100.00
51928;BME280;37953;52.806;18.270;2023-11-19T07:54:06;100437.28;;;2.71;100.00
51928;BME280;37953;52.806;18.270;2023-11-19T07:56:35;100433.97;;;2.73;100.00
51928;BME280;37953;52.806;18.270;2023-11-19T07:59:02;100428.84;;;2.73;100.00
51928;BME280;37953;52.806;18.270;2023-11-19T08:01:28;100423.72;;;2.73;100.00
51928;BME280;37953;52.806;18.270;2023-11-19T08:03:54;100418.56;;;2.73;100.00
51928;BME280;37953;52.806;18.270;2023-11-19T08:06:24;100417.75;;;2.74;100.00
51928;BME280;37953;52.806;18.270;2023-11-19T08:08:55;100409.25;;;2.75;100.00
51928;BME280;37953;52.806;18.270;2023-11-19T08:11:21;100409.25;;;2.75;100.00
51928;BME280;37953;52.806;18.270;2023-11-19T08:13:47;100406.69;;;2.75;100.00
51928;BME280;37953;52.806;18.270;2023-11-19T08:16:13;100408.34;;;2.75;100.00
51928;BME280;37953;52.806;18.270;2023-11-19T08:18:42;100402.41;;;2.76;100.00
51928;BME280;37953;52.806;18.270;2023-11-19T08:21:09;100398.16;;;2.76;100.00
51928;BME280;37953;52.806;18.270;2023-11-19T08:23:36;100393.00;;;2.76;100.00
51928;BME280;37953;52.806;18.270;2023-11-19T08:26:02;100386.19;;;2.77;100.00
51928;BME280;37953;52.806;18.270;2023-11-19T08:28:31;100386.25;;;2.78;100.00
51928;BME280;37953;52.806;18.270;2023-11-19T08:31:00;100375.97;;;2.78;100.00
51928;BME280;37953;52.806;18.270;2023-11-19T08:33:26;100377.69;;;2.78;100.00
51928;BME280;37953;52.806;18.270;2023-11-19T08:35:53;100387.16;;;2.80;100.00
51928;BME280;37953;52.806;18.270;2023-11-19T08:38:18;100379.47;;;2.80;100.00
51928;BME280;37953;52.806;18.270;2023-11-19T08:40:44;100376.06;;;2.81;100.00
51928;BME280;37953;52.806;18.270;2023-11-19T08:43:10;100366.69;;;2.82;100.00
51928;BME280;37953;52.806;18.270;2023-11-19T08:45:36;100358.16;;;2.83;100.00
51928;BME280;37953;52.806;18.270;2023-11-19T08:48:03;100353.91;;;2.83;100.00
51928;BME280;37953;52.806;18.270;2023-11-19T08:50:31;100347.97;;;2.84;100.00
51928;BME280;37953;52.806;18.270;2023-11-19T08:53:00;100342.00;;;2.85;100.00
51928;BME280;37953;52.806;18.270;2023-11-19T08:55:35;100348.03;;;2.86;100.00
51928;BME280;37953;52.806;18.270;2023-11-19T08:58:04;100341.13;;;2.85;100.00
51928;BME280;37953;52.806;18.270;2023-11-19T09:00:30;100338.56;;;2.85;100.00
51928;BME280;37953;52.806;18.270;2023-11-19T09:02:58;100327.50;;;2.86;100.00
51928;BME280;37953;52.806;18.270;2023-11-19T09:05:24;100316.34;;;2.85;100.00
51928;BME280;37953;52.806;18.270;2023-11-19T09:07:49;100312.97;;;2.87;100.00
51928;BME280;37953;52.806;18.270;2023-11-19T09:10:16;100305.31;;;2.88;100.00
51928;BME280;37953;52.806;18.270;2023-11-19T09:12:41;100307.88;;;2.88;100.00
51928;BME280;37953;52.806;18.270;2023-11-19T09:15:08;100301.13;;;2.90;100.00
51928;BME280;37953;52.806;18.270;2023-11-19T09:17:36;100294.28;;;2.91;100.00
51928;BME280;37953;52.806;18.270;2023-11-19T09:20:02;100290.88;;;2.92;100.00
51928;BME280;37953;52.806;18.270;2023-11-19T09:22:28;100278.97;;;2.94;100.00
51928;BME280;37953;52.806;18.270;2023-11-19T09:24:54;100283.28;;;2.95;100.00
51928;BME280;37953;52.806;18.270;2023-11-19T09:27:21;100274.75;;;2.96;100.00
51928;BME280;37953;52.806;18.270;2023-11-19T09:29:47;100266.25;;;2.97;100.00
51928;BME280;37953;52.806;18.270;2023-11-19T09:32:19;100262.84;;;2.98;100.00
51928;BME280;37953;52.806;18.270;2023-11-19T09:34:45;100255.09;;;2.96;100.00
51928;BME280;37953;52.806;18.270;2023-11-19T09:37:12;100245.72;;;2.97;100.00
51928;BME280;37953;52.806;18.270;2023-11-19T09:39:38;100241.50;;;2.99;100.00
51928;BME280;37953;52.806;18.270;2023-11-19T09:42:04;100227.84;;;3.00;100.00
51928;BME280;37953;52.806;18.270;2023-11-19T09:44:30;100232.16;;;3.01;100.00
51928;BME280;37953;52.806;18.270;2023-11-19T09:46:58;100220.19;;;3.01;100.00
51928;BME280;37953;52.806;18.270;2023-11-19T09:49:25;100207.34;;;3.01;100.00
51928;BME280;37953;52.806;18.270;2023-11-19T09:51:52;100206.50;;;3.02;100.00
51928;BME280;37953;52.806;18.270;2023-11-19T09:54:18;100202.22;;;3.01;100.00
51928;BME280;37953;52.806;18.270;2023-11-19T09:56:43;100197.16;;;3.04;100.00
51928;BME280;37953;52.806;18.270;2023-11-19T09:59:10;100176.63;;;3.04;100.00
51928;BME280;37953;52.806;18.270;2023-11-19T10:01:39;100167.25;;;3.05;100.00
51928;BME280;37953;52.806;18.270;2023-11-19T10:04:06;100157.00;;;3.06;100.00
51928;BME280;37953;52.806;18.270;2023-11-19T10:06:32;100157.91;;;3.07;100.00
51928;BME280;37953;52.806;18.270;2023-11-19T10:08:59;100162.19;;;3.08;100.00
51928;BME280;37953;52.806;18.270;2023-11-19T10:11:25;100146.75;;;3.06;100.00
51928;BME280;37953;52.806;18.270;2023-11-19T10:13:59;100151.16;;;3.11;100.00
51928;BME280;37953;52.806;18.270;2023-11-19T10:16:43;100141.78;;;3.11;100.00
51928;BME280;37953;52.806;18.270;2023-11-19T10:19:19;100134.06;;;3.11;100.00
51928;BME280;37953;52.806;18.270;2023-11-19T10:21:48;100136.63;;;3.11;100.00
51928;BME280;37953;52.806;18.270;2023-11-19T10:24:31;100133.28;;;3.15;100.00
51928;BME280;37953;52.806;18.270;2023-11-19T10:27:10;100131.56;;;3.14;100.00
51928;BME280;37953;52.806;18.270;2023-11-19T10:29:46;100126.44;;;3.14;100.00
51928;BME280;37953;52.806;18.270;2023-11-19T10:32:13;100128.16;;;3.15;100.00
51928;BME280;37953;52.806;18.270;2023-11-19T10:34:43;100124.78;;;3.16;100.00
51928;BME280;37953;52.806;18.270;2023-11-19T10:37:32;100121.47;;;3.20;100.00
51928;BME280;37953;52.806;18.270;2023-11-19T10:40:37;100118.91;;;3.20;100.00
51928;BME280;37953;52.806;18.270;2023-11-19T10:43:15;100116.41;;;3.22;100.00
51928;BME280;37953;52.806;18.270;2023-11-19T10:45:47;100124.09;;;3.22;100.00
51928;BME280;37953;52.806;18.270;2023-11-19T10:48:13;100109.56;;;3.22;100.00
51928;BME280;37953;52.806;18.270;2023-11-19T10:50:42;100106.13;;;3.22;100.00
51928;BME280;37953;52.806;18.270;2023-11-19T10:53:23;100105.34;;;3.24;100.00
51928;BME280;37953;52.806;18.270;2023-11-19T10:56:00;100105.34;;;3.24;100.00
51928;BME280;37953;52.806;18.270;2023-11-19T10:58:36;100096.78;;;3.24;100.00
51928;BME280;37953;52.806;18.270;2023-11-19T11:01:13;100091.66;;;3.25;100.00
51928;BME280;37953;52.806;18.270;2023-11-19T11:03:46;100091.63;;;3.24;100.00
51928;BME280;37953;52.806;18.270;2023-11-19T11:06:33;100073.66;;;3.24;100.00
51928;BME280;37953;52.806;18.270;2023-11-19T11:09:06;100068.53;;;3.24;100.00
51928;BME280;37953;52.806;18.270;2023-11-19T11:11:44;100063.41;;;3.24;100.00
51928;BME280;37953;52.806;18.270;2023-11-19T11:14:23;100069.41;;;3.24;100.00
51928;BME280;37953;52.806;18.270;2023-11-19T11:16:51;100065.06;;;3.23;100.00
51928;BME280;37953;52.806;18.270;2023-11-19T11:19:17;100053.91;;;3.21;100.00
51928;BME280;37953;52.806;18.270;2023-11-19T11:21:47;100048.75;;;3.21;100.00
51928;BME280;37953;52.806;18.270;2023-11-19T11:24:27;100035.91;;;3.20;100.00
51928;BME280;37953;52.806;18.270;2023-11-19T11:27:33;100041.81;;;3.17;100.00
51928;BME280;37953;52.806;18.270;2023-11-19T11:32:51;100035.13;;;3.22;100.00
51928;BME280;37953;52.806;18.270;2023-11-19T11:38:14;100026.28;;;3.11;100.00
51928;BME280;37953;52.806;18.270;2023-11-19T11:49:04;100008.84;;;2.99;100.00
51928;BME280;37953;52.806;18.270;2023-11-19T11:54:11;100002.03;;;3.00;100.00
51928;BME280;37953;52.806;18.270;2023-11-19T11:56:37;100002.88;;;2.99;100.00
51928;BME280;37953;52.806;18.270;2023-11-19T11:59:08;100002.88;;;2.99;100.00
51928;BME280;37953;52.806;18.270;2023-11-19T12:02:07;99990.91;;;2.99;100.00
51928;BME280;37953;52.806;18.270;2023-11-19T12:04:35;99976.31;;;2.97;100.00
51928;BME280;37953;52.806;18.270;2023-11-19T12:09:31;99962.56;;;2.95;100.00
51928;BME280;37953;52.806;18.270;2023-11-19T12:15:05;99939.47;;;2.96;100.00
51928;BME280;37953;52.806;18.270;2023-11-19T12:17:47;99920.59;;;2.93;100.00
51928;BME280;37953;52.806;18.270;2023-11-19T12:20:19;99910.28;;;2.91;100.00
51928;BME280;37953;52.806;18.270;2023-11-19T12:22:50;99906.88;;;2.91;100.00
51928;BME280;37953;52.806;18.270;2023-11-19T12:25:18;99905.16;;;2.91;100.00
51928;BME280;37953;52.806;18.270;2023-11-19T12:27:52;99886.34;;;2.91;100.00
51928;BME280;37953;52.806;18.270;2023-11-19T12:30:25;99882.91;;;2.90;100.00
51928;BME280;37953;52.806;18.270;2023-11-19T12:32:52;99909.38;;;2.89;100.00
51928;BME280;37953;52.806;18.270;2023-11-19T12:35:22;99906.81;;;2.89;100.00
51928;BME280;37953;52.806;18.270;2023-11-19T12:37:50;99882.84;;;2.87;100.00
51928;BME280;37953;52.806;18.270;2023-11-19T12:40:21;99890.47;;;2.85;100.00
51928;BME280;37953;52.806;18.270;2023-11-19T12:42:54;99894.75;;;2.85;100.00
51928;BME280;37953;52.806;18.270;2023-11-19T12:45:24;99896.47;;;2.84;100.00
51928;BME280;37953;52.806;18.270;2023-11-19T12:48:07;99883.69;;;2.86;100.00
51928;BME280;37953;52.806;18.270;2023-11-19T12:50:58;99903.34;;;2.87;100.00
51928;BME280;37953;52.806;18.270;2023-11-19T12:53:56;99883.63;;;2.84;100.00
51928;BME280;37953;52.806;18.270;2023-11-19T12:56:25;99886.16;;;2.83;100.00
51928;BME280;37953;52.806;18.270;2023-11-19T12:58:51;99880.97;;;2.81;100.00
51928;BME280;37953;52.806;18.270;2023-11-19T13:01:21;99874.97;;;2.81;100.00
51928;BME280;37953;52.806;18.270;2023-11-19T13:03:48;99862.19;;;2.82;100.00
51928;BME280;37953;52.806;18.270;2023-11-19T13:06:17;99842.53;;;2.83;100.00
51928;BME280;37953;52.806;18.270;2023-11-19T13:08:48;99839.13;;;2.82;100.00
51928;BME280;37953;52.806;18.270;2023-11-19T13:11:36;99840.03;;;2.84;100.00